sensor_id;sensor_type;location;lat;lon;timestamp;P1;durP1;ratioP1;P2;durP2;ratioP2
13855;SDS011;6998;53.608;9.958;2023-08-06T00:01:41;4.15;;;2.30;;
13855;SDS011;6998;53.608;9.958;2023-08-06T00:04:08;2.63;;;2.15;;
13855;SDS011;6998;53.608;9.958;2023-08-06T00:06:35;3.35;;;2.60;;
13855;SDS011;6998;53.608;9.958;2023-08-06T00:09:02;3.17;;;2.70;;
13855;SDS011;6998;53.608;9.958;2023-08-06T00:11:28;2.60;;;2.35;;
13855;SDS011;6998;53.608;9.958;2023-08-06T00:13:55;2.50;;;2.30;;
13855;SDS011;6998;53.608;9.958;2023-08-06T00:16:22;2.50;;;2.30;;
13855;SDS011;6998;53.608;9.958;2023-08-06T00:18:50;2.67;;;2.30;;
13855;SDS011;6998;53.608;9.958;2023-08-06T00:21:17;2.95;;;2.70;;
13855;SDS011;6998;53.608;9.958;2023-08-06T00:23:44;2.88;;;2.33;;
13855;SDS011;6998;53.608;9.958;2023-08-06T00:26:10;2.95;;;2.58;;
13855;SDS011;6998;53.608;9.958;2023-08-06T00:28:37;3.08;;;2.78;;
13855;SDS011;6998;53.608;9.958;2023-08-06T00:31:04;3.10;;;2.80;;
13855;SDS011;6998;53.608;9.958;2023-08-06T00:33:31;2.95;;;2.58;;
13855;SDS011;6998;53.608;9.958;2023-08-06T00:35:59;3.35;;;3.05;;
13855;SDS011;6998;53.608;9.958;2023-08-06T00:38:25;3.47;;;3.20;;
13855;SDS011;6998;53.608;9.958;2023-08-06T00:40:52;3.20;;;2.92;;
13855;SDS011;6998;53.608;9.958;2023-08-06T00:43:19;3.13;;;2.83;;
13855;SDS011;6998;53.608;9.958;2023-08-06T00:45:46;3.25;;;2.88;;
13855;SDS011;6998;53.608;9.958;2023-08-06T00:48:12;3.25;;;3.00;;
13855;SDS011;6998;53.608;9.958;2023-08-06T00:50:40;2.90;;;2.70;;
13855;SDS011;6998;53.608;9.958;2023-08-06T00:53:08;3.55;;;2.75;;
13855;SDS011;6998;53.608;9.958;2023-08-06T00:55:35;4.30;;;3.90;;
13855;SDS011;6998;53.608;9.958;2023-08-06T00:58:02;3.80;;;3.50;;
13855;SDS011;6998;53.608;9.958;2023-08-06T01:00:29;4.60;;;3.30;;
13855;SDS011;6998;53.608;9.958;2023-08-06T01:02:56;3.28;;;3.03;;
13855;SDS011;6998;53.608;9.958;2023-08-06T01:05:23;3.40;;;3.13;;
13855;SDS011;6998;53.608;9.958;2023-08-06T01:07:51;3.60;;;3.30;;
13855;SDS011;6998;53.608;9.958;2023-08-06T01:10:38;4.55;;;3.60;;
13855;SDS011;6998;53.608;9.958;2023-08-06T01:13:11;5.28;;;3.20;;
13855;SDS011;6998;53.608;9.958;2023-08-06T01:15:46;3.83;;;3.53;;
13855;SDS011;6998;53.608;9.958;2023-08-06T01:18:15;3.83;;;3.42;;
13855;SDS011;6998;53.608;9.958;2023-08-06T01:20:44;6.03;;;3.80;;
13855;SDS011;6998;53.608;9.958;2023-08-06T01:23:10;4.05;;;3.65;;
13855;SDS011;6998;53.608;9.958;2023-08-06T01:25:39;4.05;;;3.72;;
13855;SDS011;6998;53.608;9.958;2023-08-06T01:28:15;3.85;;;3.53;;
13855;SDS011;6998;53.608;9.958;2023-08-06T01:30:49;3.53;;;3.22;;
13855;SDS011;6998;53.608;9.958;2023-08-06T01:33:19;4.05;;;3.55;;
13855;SDS011;6998;53.608;9.958;2023-08-06T01:35:49;3.83;;;3.35;;
13855;SDS011;6998;53.608;9.958;2023-08-06T01:38:19;3.53;;;3.20;;
13855;SDS011;6998;53.608;9.958;2023-08-06T01:40:46;3.28;;;2.97;;
13855;SDS011;6998;53.608;9.958;2023-08-06T01:43:12;3.90;;;3.20;;
13855;SDS011;6998;53.608;9.958;2023-08-06T01:45:39;3.85;;;3.05;;
13855;SDS011;6998;53.608;9.958;2023-08-06T01:48:06;4.82;;;3.25;;
13855;SDS011;6998;53.608;9.958;2023-08-06T01:50:33;3.65;;;3.35;;
13855;SDS011;6998;53.608;9.958;2023-08-06T01:53:01;4.05;;;3.75;;
13855;SDS011;6998;53.608;9.958;2023-08-06T01:55:28;4.15;;;3.85;;
13855;SDS011;6998;53.608;9.958;2023-08-06T01:57:55;4.10;;;3.80;;
13855;SDS011;6998;53.608;9.958;2023-08-06T02:00:22;10.00;;;3.83;;
13855;SDS011;6998;53.608;9.958;2023-08-06T02:02:49;4.57;;;4.18;;
13855;SDS011;6998;53.608;9.958;2023-08-06T02:05:16;5.05;;;4.00;;
13855;SDS011;6998;53.608;9.958;2023-08-06T02:07:42;4.68;;;4.07;;
13855;SDS011;6998;53.608;9.958;2023-08-06T02:10:11;4.68;;;3.85;;
13855;SDS011;6998;53.608;9.958;2023-08-06T02:12:37;4.63;;;4.20;;
13855;SDS011;6998;53.608;9.958;2023-08-06T02:15:05;4.57;;;4.10;;
13855;SDS011;6998;53.608;9.958;2023-08-06T02:17:32;4.22;;;3.83;;
13855;SDS011;6998;53.608;9.958;2023-08-06T02:19:59;4.00;;;3.60;;
13855;SDS011;6998;53.608;9.958;2023-08-06T02:22:26;5.53;;;4.07;;
13855;SDS011;6998;53.608;9.958;2023-08-06T02:24:53;3.58;;;3.28;;
13855;SDS011;6998;53.608;9.958;2023-08-06T02:27:21;4.18;;;3.75;;
13855;SDS011;6998;53.608;9.958;2023-08-06T02:29:48;4.22;;;3.83;;
13855;SDS011;6998;53.608;9.958;2023-08-06T02:32:14;4.07;;;3.67;;
13855;SDS011;6998;53.608;9.958;2023-08-06T02:34:41;5.15;;;4.43;;
13855;SDS011;6998;53.608;9.958;2023-08-06T02:37:08;4.95;;;4.53;;
13855;SDS011;6998;53.608;9.958;2023-08-06T02:39:35;5.28;;;4.28;;
13855;SDS011;6998;53.608;9.958;2023-08-06T02:42:04;6.13;;;4.25;;
13855;SDS011;6998;53.608;9.958;2023-08-06T02:44:33;4.22;;;3.83;;
13855;SDS011;6998;53.608;9.958;2023-08-06T02:47:00;4.20;;;3.80;;
13855;SDS011;6998;53.608;9.958;2023-08-06T02:49:27;4.53;;;4.13;;
13855;SDS011;6998;53.608;9.958;2023-08-06T02:51:54;4.60;;;4.20;;
13855;SDS011;6998;53.608;9.958;2023-08-06T02:54:20;4.97;;;4.28;;
13855;SDS011;6998;53.608;9.958;2023-08-06T02:56:47;4.93;;;4.15;;
13855;SDS011;6998;53.608;9.958;2023-08-06T02:59:15;4.35;;;3.95;;
13855;SDS011;6998;53.608;9.958;2023-08-06T03:01:43;4.38;;;3.92;;
13855;SDS011;6998;53.608;9.958;2023-08-06T03:04:10;3.85;;;3.55;;
13855;SDS011;6998;53.608;9.958;2023-08-06T03:06:36;4.45;;;3.67;;
13855;SDS011;6998;53.608;9.958;2023-08-06T03:09:03;4.13;;;3.83;;
13855;SDS011;6998;53.608;9.958;2023-08-06T03:11:30;6.85;;;4.50;;
13855;SDS011;6998;53.608;9.958;2023-08-06T03:13:57;4.65;;;4.18;;
13855;SDS011;6998;53.608;9.958;2023-08-06T03:16:23;4.38;;;3.97;;
13855;SDS011;6998;53.608;9.958;2023-08-06T03:18:51;4.28;;;3.97;;
13855;SDS011;6998;53.608;9.958;2023-08-06T03:21:18;4.00;;;3.60;;
13855;SDS011;6998;53.608;9.958;2023-08-06T03:23:46;4.35;;;3.95;;
13855;SDS011;6998;53.608;9.958;2023-08-06T03:26:13;4.50;;;4.07;;
13855;SDS011;6998;53.608;9.958;2023-08-06T03:28:39;4.57;;;4.20;;
13855;SDS011;6998;53.608;9.958;2023-08-06T03:31:06;4.13;;;3.75;;
13855;SDS011;6998;53.608;9.958;2023-08-06T03:33:33;4.68;;;3.67;;
13855;SDS011;6998;53.608;9.958;2023-08-06T03:36:01;4.20;;;3.80;;
13855;SDS011;6998;53.608;9.958;2023-08-06T03:38:28;4.50;;;4.00;;
13855;SDS011;6998;53.608;9.958;2023-08-06T03:40:55;4.20;;;3.80;;
13855;SDS011;6998;53.608;9.958;2023-08-06T03:43:22;4.82;;;4.32;;
13855;SDS011;6998;53.608;9.958;2023-08-06T03:45:48;4.13;;;3.78;;
13855;SDS011;6998;53.608;9.958;2023-08-06T03:48:15;5.85;;;4.63;;
13855;SDS011;6998;53.608;9.958;2023-08-06T03:50:42;5.97;;;4.22;;
13855;SDS011;6998;53.608;9.958;2023-08-06T03:53:10;4.25;;;3.95;;
13855;SDS011;6998;53.608;9.958;2023-08-06T03:55:37;4.32;;;3.92;;
13855;SDS011;6998;53.608;9.958;2023-08-06T03:58:03;5.10;;;4.30;;
13855;SDS011;6998;53.608;9.958;2023-08-06T04:00:30;5.20;;;3.78;;
13855;SDS011;6998;53.608;9.958;2023-08-06T04:02:57;4.18;;;3.80;;
13855;SDS011;6998;53.608;9.958;2023-08-06T04:05:24;4.80;;;3.80;;
13855;SDS011;6998;53.608;9.958;2023-08-06T04:07:50;5.00;;;4.00;;
13855;SDS011;6998;53.608;9.958;2023-08-06T04:10:19;4.30;;;3.72;;
13855;SDS011;6998;53.608;9.958;2023-08-06T04:12:45;6.07;;;3.72;;
13855;SDS011;6998;53.608;9.958;2023-08-06T04:15:13;4.70;;;4.30;;
13855;SDS011;6998;53.608;9.958;2023-08-06T04:17:39;4.22;;;3.90;;
13855;SDS011;6998;53.608;9.958;2023-08-06T04:20:06;5.07;;;4.47;;
13855;SDS011;6998;53.608;9.958;2023-08-06T04:22:34;4.47;;;4.07;;
13855;SDS011;6998;53.608;9.958;2023-08-06T04:25:00;4.65;;;4.22;;
13855;SDS011;6998;53.608;9.958;2023-08-06T04:27:29;4.30;;;3.90;;
13855;SDS011;6998;53.608;9.958;2023-08-06T04:29:56;4.45;;;4.05;;
13855;SDS011;6998;53.608;9.958;2023-08-06T04:32:23;5.45;;;4.65;;
13855;SDS011;6998;53.608;9.958;2023-08-06T04:34:51;4.90;;;4.40;;
13855;SDS011;6998;53.608;9.958;2023-08-06T04:37:17;5.15;;;4.65;;
13855;SDS011;6998;53.608;9.958;2023-08-06T04:39:44;6.18;;;4.38;;
13855;SDS011;6998;53.608;9.958;2023-08-06T04:42:11;7.05;;;4.30;;
13855;SDS011;6998;53.608;9.958;2023-08-06T04:44:39;5.03;;;4.30;;
13855;SDS011;6998;53.608;9.958;2023-08-06T04:47:05;5.25;;;4.60;;
13855;SDS011;6998;53.608;9.958;2023-08-06T04:49:32;5.03;;;4.50;;
13855;SDS011;6998;53.608;9.958;2023-08-06T04:51:59;7.95;;;4.88;;
13855;SDS011;6998;53.608;9.958;2023-08-06T04:54:26;5.32;;;4.50;;
13855;SDS011;6998;53.608;9.958;2023-08-06T04:56:53;5.00;;;4.50;;
13855;SDS011;6998;53.608;9.958;2023-08-06T04:59:20;6.85;;;4.18;;
13855;SDS011;6998;53.608;9.958;2023-08-06T05:01:48;6.25;;;4.68;;
13855;SDS011;6998;53.608;9.958;2023-08-06T05:04:14;5.25;;;4.53;;
13855;SDS011;6998;53.608;9.958;2023-08-06T05:06:41;5.22;;;4.72;;
13855;SDS011;6998;53.608;9.958;2023-08-06T05:09:08;4.45;;;4.05;;
13855;SDS011;6998;53.608;9.958;2023-08-06T05:11:35;5.15;;;4.45;;
13855;SDS011;6998;53.608;9.958;2023-08-06T05:14:02;7.45;;;4.70;;
13855;SDS011;6998;53.608;9.958;2023-08-06T05:16:29;4.93;;;4.18;;
13855;SDS011;6998;53.608;9.958;2023-08-06T05:18:57;6.47;;;4.60;;
13855;SDS011;6998;53.608;9.958;2023-08-06T05:21:24;4.82;;;4.35;;
13855;SDS011;6998;53.608;9.958;2023-08-06T05:23:51;6.38;;;4.82;;
13855;SDS011;6998;53.608;9.958;2023-08-06T05:26:18;5.00;;;4.55;;
13855;SDS011;6998;53.608;9.958;2023-08-06T05:28:44;5.90;;;4.80;;
13855;SDS011;6998;53.608;9.958;2023-08-06T05:31:11;5.40;;;4.57;;
13855;SDS011;6998;53.608;9.958;2023-08-06T05:33:38;5.80;;;5.07;;
13855;SDS011;6998;53.608;9.958;2023-08-06T05:36:07;7.65;;;5.20;;
13855;SDS011;6998;53.608;9.958;2023-08-06T05:38:33;5.50;;;4.72;;
13855;SDS011;6998;53.608;9.958;2023-08-06T05:41:00;5.95;;;4.85;;
13855;SDS011;6998;53.608;9.958;2023-08-06T05:43:27;7.40;;;4.55;;
13855;SDS011;6998;53.608;9.958;2023-08-06T05:45:54;5.47;;;4.93;;
13855;SDS011;6998;53.608;9.958;2023-08-06T05:48:22;8.00;;;4.95;;
13855;SDS011;6998;53.608;9.958;2023-08-06T05:50:49;5.00;;;4.50;;
13855;SDS011;6998;53.608;9.958;2023-08-06T05:53:18;7.18;;;5.13;;
13855;SDS011;6998;53.608;9.958;2023-08-06T05:55:44;5.30;;;4.68;;
13855;SDS011;6998;53.608;9.958;2023-08-06T05:58:11;8.23;;;5.60;;
13855;SDS011;6998;53.608;9.958;2023-08-06T06:00:38;6.40;;;4.82;;
13855;SDS011;6998;53.608;9.958;2023-08-06T06:03:05;7.80;;;5.43;;
13855;SDS011;6998;53.608;9.958;2023-08-06T06:05:31;6.53;;;5.18;;
13855;SDS011;6998;53.608;9.958;2023-08-06T06:07:58;5.65;;;4.78;;
13855;SDS011;6998;53.608;9.958;2023-08-06T06:10:26;6.10;;;4.68;;
13855;SDS011;6998;53.608;9.958;2023-08-06T06:12:53;6.18;;;5.00;;
13855;SDS011;6998;53.608;9.958;2023-08-06T06:15:20;5.20;;;4.68;;
13855;SDS011;6998;53.608;9.958;2023-08-06T06:17:46;10.35;;;5.97;;
13855;SDS011;6998;53.608;9.958;2023-08-06T06:20:13;6.40;;;5.05;;
13855;SDS011;6998;53.608;9.958;2023-08-06T06:22:40;6.25;;;4.55;;
13855;SDS011;6998;53.608;9.958;2023-08-06T06:25:08;7.13;;;4.90;;
13855;SDS011;6998;53.608;9.958;2023-08-06T06:27:37;5.70;;;5.07;;
13855;SDS011;6998;53.608;9.958;2023-08-06T06:30:04;5.93;;;5.25;;
13855;SDS011;6998;53.608;9.958;2023-08-06T06:32:31;5.80;;;5.20;;
13855;SDS011;6998;53.608;9.958;2023-08-06T06:34:59;5.65;;;5.05;;
13855;SDS011;6998;53.608;9.958;2023-08-06T06:37:26;6.78;;;5.40;;
13855;SDS011;6998;53.608;9.958;2023-08-06T06:39:52;5.80;;;5.20;;
13855;SDS011;6998;53.608;9.958;2023-08-06T06:42:19;6.53;;;5.13;;
13855;SDS011;6998;53.608;9.958;2023-08-06T06:44:49;6.38;;;5.20;;
13855;SDS011;6998;53.608;9.958;2023-08-06T06:47:16;7.55;;;5.75;;
13855;SDS011;6998;53.608;9.958;2023-08-06T06:49:42;7.35;;;5.60;;
13855;SDS011;6998;53.608;9.958;2023-08-06T06:52:09;6.28;;;5.45;;
13855;SDS011;6998;53.608;9.958;2023-08-06T06:54:36;7.40;;;5.50;;
13855;SDS011;6998;53.608;9.958;2023-08-06T06:57:03;5.90;;;5.05;;
13855;SDS011;6998;53.608;9.958;2023-08-06T06:59:31;8.55;;;5.38;;
13855;SDS011;6998;53.608;9.958;2023-08-06T07:01:59;5.88;;;5.30;;
13855;SDS011;6998;53.608;9.958;2023-08-06T07:04:25;7.97;;;5.53;;
13855;SDS011;6998;53.608;9.958;2023-08-06T07:06:52;6.45;;;5.80;;
13855;SDS011;6998;53.608;9.958;2023-08-06T07:09:19;8.70;;;5.50;;
13855;SDS011;6998;53.608;9.958;2023-08-06T07:11:46;6.03;;;5.32;;
13855;SDS011;6998;53.608;9.958;2023-08-06T07:14:12;6.07;;;5.00;;
13855;SDS011;6998;53.608;9.958;2023-08-06T07:16:39;7.40;;;5.35;;
13855;SDS011;6998;53.608;9.958;2023-08-06T07:19:08;9.00;;;5.47;;
13855;SDS011;6998;53.608;9.958;2023-08-06T07:21:34;7.70;;;5.45;;
13855;SDS011;6998;53.608;9.958;2023-08-06T07:24:01;7.82;;;5.65;;
13855;SDS011;6998;53.608;9.958;2023-08-06T07:26:28;6.47;;;5.75;;
13855;SDS011;6998;53.608;9.958;2023-08-06T07:28:55;10.48;;;5.97;;
13855;SDS011;6998;53.608;9.958;2023-08-06T07:31:21;8.35;;;5.70;;
13855;SDS011;6998;53.608;9.958;2023-08-06T07:33:48;7.35;;;5.70;;
13855;SDS011;6998;53.608;9.958;2023-08-06T07:36:16;8.82;;;5.75;;
13855;SDS011;6998;53.608;9.958;2023-08-06T07:38:43;7.63;;;5.50;;
13855;SDS011;6998;53.608;9.958;2023-08-06T07:41:10;9.68;;;6.35;;
13855;SDS011;6998;53.608;9.958;2023-08-06T07:43:36;7.35;;;5.82;;
13855;SDS011;6998;53.608;9.958;2023-08-06T07:46:03;10.95;;;6.22;;
13855;SDS011;6998;53.608;9.958;2023-08-06T07:48:30;9.85;;;6.28;;
13855;SDS011;6998;53.608;9.958;2023-08-06T07:50:57;6.70;;;5.82;;
13855;SDS011;6998;53.608;9.958;2023-08-06T07:53:26;6.90;;;5.60;;
13855;SDS011;6998;53.608;9.958;2023-08-06T07:55:54;7.90;;;5.90;;
13855;SDS011;6998;53.608;9.958;2023-08-06T07:58:23;11.48;;;6.13;;
13855;SDS011;6998;53.608;9.958;2023-08-06T08:00:51;8.10;;;5.68;;
13855;SDS011;6998;53.608;9.958;2023-08-06T08:03:18;9.18;;;6.22;;
13855;SDS011;6998;53.608;9.958;2023-08-06T08:05:46;7.95;;;6.18;;
13855;SDS011;6998;53.608;9.958;2023-08-06T08:08:13;8.13;;;5.95;;
13855;SDS011;6998;53.608;9.958;2023-08-06T08:10:42;7.68;;;5.68;;
13855;SDS011;6998;53.608;9.958;2023-08-06T08:13:09;7.65;;;5.40;;
13855;SDS011;6998;53.608;9.958;2023-08-06T08:15:41;7.90;;;5.25;;
13855;SDS011;6998;53.608;9.958;2023-08-06T08:18:12;6.20;;;5.60;;
13855;SDS011;6998;53.608;9.958;2023-08-06T08:20:39;8.25;;;5.82;;
13855;SDS011;6998;53.608;9.958;2023-08-06T08:23:05;9.48;;;5.80;;
13855;SDS011;6998;53.608;9.958;2023-08-06T08:25:32;6.90;;;6.10;;
13855;SDS011;6998;53.608;9.958;2023-08-06T08:28:00;6.63;;;5.82;;
13855;SDS011;6998;53.608;9.958;2023-08-06T08:30:27;9.40;;;6.20;;
13855;SDS011;6998;53.608;9.958;2023-08-06T08:32:54;7.97;;;6.15;;
13855;SDS011;6998;53.608;9.958;2023-08-06T08:35:20;6.10;;;5.50;;
13855;SDS011;6998;53.608;9.958;2023-08-06T08:37:47;8.90;;;5.80;;
13855;SDS011;6998;53.608;9.958;2023-08-06T08:40:15;6.60;;;5.90;;
13855;SDS011;6998;53.608;9.958;2023-08-06T08:42:42;6.25;;;5.70;;
13855;SDS011;6998;53.608;9.958;2023-08-06T08:45:11;6.03;;;5.13;;
13855;SDS011;6998;53.608;9.958;2023-08-06T08:47:40;10.32;;;6.03;;
13855;SDS011;6998;53.608;9.958;2023-08-06T08:50:08;7.82;;;6.07;;
13855;SDS011;6998;53.608;9.958;2023-08-06T08:52:36;11.65;;;6.10;;
13855;SDS011;6998;53.608;9.958;2023-08-06T08:55:05;10.52;;;5.78;;
13855;SDS011;6998;53.608;9.958;2023-08-06T08:57:34;8.10;;;6.13;;
13855;SDS011;6998;53.608;9.958;2023-08-06T09:00:00;6.93;;;6.25;;
13855;SDS011;6998;53.608;9.958;2023-08-06T09:02:29;7.43;;;6.00;;
13855;SDS011;6998;53.608;9.958;2023-08-06T09:04:59;7.70;;;6.30;;
13855;SDS011;6998;53.608;9.958;2023-08-06T09:07:31;6.55;;;5.78;;
13855;SDS011;6998;53.608;9.958;2023-08-06T09:10:01;6.95;;;6.18;;
13855;SDS011;6998;53.608;9.958;2023-08-06T09:12:30;8.02;;;6.40;;
13855;SDS011;6998;53.608;9.958;2023-08-06T09:14:57;7.20;;;5.95;;
13855;SDS011;6998;53.608;9.958;2023-08-06T09:17:24;7.57;;;5.80;;
13855;SDS011;6998;53.608;9.958;2023-08-06T09:19:52;8.50;;;5.68;;
13855;SDS011;6998;53.608;9.958;2023-08-06T09:22:18;8.07;;;5.68;;
13855;SDS011;6998;53.608;9.958;2023-08-06T09:24:45;5.72;;;5.18;;
13855;SDS011;6998;53.608;9.958;2023-08-06T09:27:12;6.45;;;4.78;;
13855;SDS011;6998;53.608;9.958;2023-08-06T09:29:40;5.88;;;5.15;;
13855;SDS011;6998;53.608;9.958;2023-08-06T09:32:08;8.02;;;5.47;;
13855;SDS011;6998;53.608;9.958;2023-08-06T09:34:35;8.32;;;4.97;;
13855;SDS011;6998;53.608;9.958;2023-08-06T09:37:05;7.85;;;5.32;;
13855;SDS011;6998;53.608;9.958;2023-08-06T09:39:34;6.18;;;5.20;;
13855;SDS011;6998;53.608;9.958;2023-08-06T09:42:01;7.85;;;5.85;;
13855;SDS011;6998;53.608;9.958;2023-08-06T09:44:30;5.20;;;4.65;;
